createdAt,value
2018-06-02T00:01:31.122Z,67.75
2018-06-02T00:04:01.462Z,67.50
2018-06-02T00:06:33.173Z,69.50
2018-06-02T00:09:22.736Z,64.50
2018-06-02T00:14:42.429Z,66.25
2018-06-02T00:17:14.660Z,70.50
2018-06-02T00:19:45.231Z,75.00
2018-06-02T00:22:15.750Z,65.25
2018-06-02T00:24:46.556Z,60.75
2018-06-02T00:27:19.854Z,57.75
2018-06-02T00:29:57.326Z,53.50
2018-06-02T00:32:29.103Z,55.75
2018-06-02T00:35:00.437Z,53.50
2018-06-02T00:37:42.092Z,47.50
2018-06-02T00:40:12.996Z,40.75
2018-06-02T00:42:43.771Z,39.50
2018-06-02T00:47:54.716Z,43.00
2018-06-02T00:50:27.835Z,38.75
2018-06-02T00:52:58.293Z,36.75
2018-06-02T00:55:28.860Z,39.00
2018-06-02T00:58:03.362Z,41.50
2018-06-02T01:00:36.488Z,40.75
2018-06-02T01:03:07.884Z,33.50
2018-06-02T01:05:38.385Z,36.75
2018-06-02T01:08:17.443Z,34.50
2018-06-02T01:10:48.260Z,41.00
2018-06-02T01:13:18.783Z,35.50
2018-06-02T01:15:49.645Z,30.25
2018-06-02T01:18:20.057Z,28.25
2018-06-02T01:20:50.769Z,29.00
2018-06-02T01:23:21.218Z,31.50
2018-06-02T01:25:51.945Z,37.50
2018-06-02T01:28:22.458Z,36.25
2018-06-02T01:30:53.139Z,39.50
2018-06-02T01:33:24.037Z,34.25
2018-06-02T01:35:54.870Z,42.00
2018-06-02T01:38:25.231Z,45.75
2018-06-02T01:40:56.290Z,39.50
2018-06-02T01:43:27.197Z,36.50
2018-06-02T01:45:58.202Z,43.50
2018-06-02T01:48:29.271Z,41.50
2018-06-02T01:50:59.957Z,44.25
2018-06-02T01:53:30.881Z,46.75
2018-06-02T01:56:01.325Z,39.25
2018-06-02T01:58:31.975Z,46.00
2018-06-02T02:01:03.078Z,42.50
2018-06-02T02:03:33.493Z,43.75
2018-06-02T02:06:04.504Z,44.75
2018-06-02T02:08:35.786Z,51.50
2018-06-02T02:11:06.717Z,44.75
2018-06-02T02:13:38.646Z,47.00
2018-06-02T02:16:10.415Z,48.25
2018-06-02T02:18:42.030Z,53.00
2018-06-02T02:21:13.177Z,42.50
2018-06-02T02:23:43.596Z,54.25
2018-06-02T02:26:22.821Z,54.50
2018-06-02T02:28:53.171Z,51.00
2018-06-02T02:31:24.002Z,51.00
2018-06-02T02:33:54.629Z,50.75
2018-06-02T02:36:25.157Z,53.00
2018-06-02T02:38:55.512Z,55.75
2018-06-02T02:41:26.266Z,57.25
2018-06-02T02:43:56.710Z,54.75
2018-06-02T02:46:28.172Z,55.25
2018-06-02T02:48:58.884Z,55.00
2018-06-02T02:51:29.724Z,53.00
2018-06-02T02:54:00.291Z,54.75
2018-06-02T02:56:31.477Z,58.75
2018-06-02T02:59:02.126Z,55.00
2018-06-02T03:01:33.698Z,54.75
2018-06-02T03:04:05.022Z,56.75
2018-06-02T03:06:36.878Z,56.00
2018-06-02T03:09:08.656Z,55.00
2018-06-02T03:11:39.451Z,59.25
2018-06-02T03:14:10.802Z,55.00
2018-06-02T03:16:42.449Z,55.50
2018-06-02T03:19:13.219Z,63.25
2018-06-02T03:21:44.698Z,56.25
2018-06-02T03:24:15.949Z,55.75
2018-06-02T03:26:47.847Z,58.50
2018-06-02T03:29:18.825Z,60.75
2018-06-02T03:31:49.970Z,59.50
2018-06-02T03:34:20.770Z,61.50
2018-06-02T03:36:51.563Z,58.25
2018-06-02T03:39:22.732Z,64.25
2018-06-02T03:41:53.159Z,62.25
2018-06-02T03:44:23.681Z,59.75
2018-06-02T03:46:54.209Z,55.00
2018-06-02T03:49:24.758Z,58.75
2018-06-02T03:51:55.551Z,64.75
2018-06-02T03:54:26.097Z,55.25
2018-06-02T03:56:56.545Z,59.50
2018-06-02T03:59:27.283Z,63.25
2018-06-02T04:01:58.056Z,63.75
2018-06-02T04:04:28.450Z,59.00
2018-06-02T04:06:59.971Z,59.00
2018-06-02T04:09:33.810Z,58.75
2018-06-02T04:12:06.022Z,63.25
2018-06-02T04:14:36.809Z,63.00
2018-06-02T04:17:07.434Z,61.50
2018-06-02T04:19:38.978Z,64.75
2018-06-02T04:22:10.130Z,62.75
2018-06-02T04:24:46.377Z,64.25
2018-06-02T04:27:20.216Z,68.25
2018-06-02T04:29:52.634Z,59.00
2018-06-02T04:32:23.382Z,65.50
2018-06-02T04:34:55.047Z,63.00
2018-06-02T04:37:25.842Z,66.25
2018-06-02T04:39:56.189Z,64.00
2018-06-02T04:42:26.983Z,67.25
2018-06-02T04:44:57.472Z,63.75
2018-06-02T04:47:28.079Z,63.50
2018-06-02T04:49:58.868Z,66.75
2018-06-02T04:52:29.535Z,65.25
2018-06-02T04:55:02.140Z,65.50
2018-06-02T04:57:33.073Z,65.75
2018-06-02T05:00:05.141Z,64.75
2018-06-02T05:02:36.048Z,65.25
2018-06-02T05:05:06.959Z,66.75
2018-06-02T05:07:37.511Z,65.00
2018-06-02T05:10:07.964Z,69.00
2018-06-02T05:12:40.447Z,61.25
2018-06-02T05:15:17.174Z,67.75
2018-06-02T05:17:48.069Z,71.00
2018-06-02T05:20:19.771Z,67.75
2018-06-02T05:23:05.525Z,67.75
2018-06-02T05:25:36.554Z,69.50
2018-06-02T05:28:07.166Z,69.75
2018-06-02T05:30:39.799Z,70.00
2018-06-02T05:33:12.242Z,71.00
2018-06-02T05:35:45.397Z,72.50
2018-06-02T05:38:16.672Z,69.00
2018-06-02T05:40:58.489Z,74.25
2018-06-02T05:43:30.411Z,70.75
2018-06-02T05:46:01.321Z,72.75
2018-06-02T05:48:36.799Z,76.25
2018-06-02T05:51:07.999Z,69.25
2018-06-02T05:53:39.777Z,72.25
2018-06-02T05:56:12.161Z,68.75
2018-06-02T05:58:43.771Z,72.00
2018-06-02T06:01:17.700Z,69.50
2018-06-02T06:03:49.092Z,70.50
2018-06-02T06:06:30.868Z,73.75
2018-06-02T06:09:02.283Z,70.25
2018-06-02T06:11:35.993Z,69.25
2018-06-02T06:14:06.916Z,69.75
2018-06-02T06:16:37.654Z,66.75
2018-06-02T06:19:08.488Z,68.00
2018-06-02T06:21:40.673Z,66.25
2018-06-02T06:24:11.754Z,64.25
2018-06-02T06:26:42.770Z,60.50
2018-06-02T06:32:01.814Z,55.00
2018-06-02T06:34:34.178Z,53.25
2018-06-02T06:37:07.013Z,50.75
2018-06-02T06:39:39.395Z,48.50
2018-06-02T06:42:10.433Z,49.75
2018-06-02T06:44:42.217Z,49.25
2018-06-02T06:47:13.460Z,49.75
2018-06-02T06:49:44.295Z,46.50
2018-06-02T06:52:19.846Z,46.00
2018-06-02T06:55:04.124Z,47.75
2018-06-02T07:00:21.149Z,36.75
2018-06-02T07:02:55.238Z,34.25
2018-06-02T07:05:26.892Z,35.25
2018-06-02T07:10:39.241Z,25.75
2018-06-02T07:13:10.116Z,29.25
2018-06-02T07:15:45.492Z,26.00
2018-06-02T07:18:23.296Z,29.50
2018-06-02T07:20:57.275Z,26.25
2018-06-02T07:23:29.049Z,32.50
2018-06-02T07:26:01.164Z,29.00
2018-06-02T07:28:33.787Z,31.50
2018-06-02T07:31:06.211Z,26.75
2018-06-02T07:33:45.713Z,28.75
2018-06-02T07:36:16.365Z,26.25
2018-06-02T07:38:49.243Z,23.25
2018-06-02T07:46:42.976Z,25.75
2018-06-02T07:49:14.689Z,28.50
2018-06-02T07:51:46.485Z,26.25
2018-06-02T07:54:17.550Z,24.75
2018-06-02T07:56:48.802Z,28.00
2018-06-02T07:59:27.952Z,24.50
2018-06-02T08:02:00.448Z,25.75
2018-06-02T08:04:34.949Z,29.00
2018-06-02T08:07:20.547Z,24.50
2018-06-02T08:10:05.397Z,26.50
2018-06-02T08:12:46.733Z,25.75
2018-06-02T08:15:20.107Z,27.00
2018-06-02T08:17:53.759Z,22.75
2018-06-02T08:20:32.903Z,24.00
2018-06-02T08:25:57.160Z,24.00
2018-06-02T08:28:30.732Z,26.50
2018-06-02T08:31:33.169Z,24.00
2018-06-02T08:36:30.340Z,24.00
2018-06-02T08:39:02.380Z,22.00
2018-06-02T08:41:35.474Z,25.50
2018-06-02T08:44:07.991Z,19.75
2018-06-02T08:46:39.949Z,19.75
2018-06-02T08:49:10.885Z,22.25
2018-06-02T08:54:17.158Z,22.00
2018-06-02T08:56:51.127Z,21.75
2018-06-02T08:59:24.435Z,24.75
2018-06-02T09:01:58.015Z,26.50
2018-06-02T09:04:50.472Z,23.50
2018-06-02T09:07:28.404Z,26.25
2018-06-02T09:10:02.560Z,24.25
2018-06-02T09:12:33.450Z,25.50
2018-06-02T09:15:07.505Z,23.00
2018-06-02T09:17:46.708Z,22.25
2018-06-02T09:20:23.199Z,24.75
2018-06-02T09:22:56.047Z,19.00
2018-06-02T09:25:30.358Z,18.50
2018-06-02T09:28:01.998Z,23.00
2018-06-02T09:30:41.495Z,19.75
2018-06-02T09:33:23.660Z,20.75
2018-06-02T09:35:56.118Z,19.50
2018-06-02T09:41:17.054Z,26.25
2018-06-02T09:43:50.233Z,22.75
2018-06-02T09:46:36.667Z,20.00
2018-06-02T09:49:11.566Z,17.75
2018-06-02T09:51:49.758Z,19.75
2018-06-02T09:54:43.866Z,19.75
2018-06-02T09:57:20.990Z,17.75
2018-06-02T09:59:54.173Z,21.00
2018-06-02T10:02:25.621Z,22.50
2018-06-02T10:04:59.122Z,19.50
2018-06-02T10:07:41.659Z,19.00
2018-06-02T10:10:12.902Z,23.00
2018-06-02T10:12:45.328Z,17.50
2018-06-02T10:15:19.573Z,16.25
2018-06-02T10:17:51.103Z,14.75
2018-06-02T10:20:22.683Z,15.50
2018-06-02T10:22:54.210Z,15.00
2018-06-02T10:25:25.847Z,16.75
2018-06-02T10:27:56.349Z,14.75
2018-06-02T10:30:27.928Z,14.50
2018-06-02T10:32:59.922Z,16.00
2018-06-02T10:35:31.633Z,16.25
2018-06-02T10:38:05.659Z,16.25
2018-06-02T10:40:39.965Z,13.75
2018-06-02T10:43:11.934Z,12.00
2018-06-02T10:45:45.862Z,12.00
2018-06-02T10:48:16.554Z,11.50
2018-06-02T10:50:48.553Z,11.00
2018-06-02T10:53:20.426Z,13.75
2018-06-02T10:55:52.726Z,12.50
2018-06-02T10:58:29.542Z,13.50
2018-06-02T11:01:00.691Z,15.00
2018-06-02T11:03:32.344Z,15.75
2018-06-02T11:06:03.989Z,14.50
2018-06-02T11:08:36.530Z,15.00
2018-06-02T11:11:10.479Z,15.50
2018-06-02T11:16:44.716Z,10.75
2018-06-02T11:19:16.726Z,12.25
2018-06-02T11:21:48.351Z,13.50
2018-06-02T11:24:25.953Z,15.25
2018-06-02T11:26:57.172Z,15.50
2018-06-02T11:29:41.890Z,13.25
2018-06-02T11:32:28.139Z,13.75
2018-06-02T11:35:00.538Z,13.50
2018-06-02T11:37:31.364Z,14.00
2018-06-02T11:40:03.116Z,13.00
2018-06-02T11:42:34.503Z,11.75
2018-06-02T11:45:13.173Z,12.00
2018-06-02T11:47:45.908Z,10.25
2018-06-02T11:50:19.126Z,12.00
2018-06-02T11:52:50.813Z,10.00
2018-06-02T11:55:26.973Z,10.50
2018-06-02T11:58:12.953Z,8.75
2018-06-02T12:00:49.658Z,10.50
2018-06-02T12:03:25.233Z,10.75
2018-06-02T12:05:56.222Z,11.50
2018-06-02T12:08:28.687Z,9.25
2018-06-02T12:10:59.277Z,10.50
2018-06-02T12:13:48.496Z,11.75
2018-06-02T12:16:32.018Z,11.25
2018-06-02T12:19:03.491Z,10.25
2018-06-02T12:21:33.845Z,10.75
2018-06-02T12:24:05.993Z,8.75
2018-06-02T12:26:37.107Z,6.75
2018-06-02T12:29:08.793Z,8.00
2018-06-02T12:31:44.750Z,8.50
2018-06-02T12:34:17.669Z,12.25
2018-06-02T12:36:50.321Z,10.50
2018-06-02T12:39:22.622Z,10.00
2018-06-02T12:44:37.851Z,9.00
2018-06-02T12:47:09.144Z,10.25
2018-06-02T12:49:42.359Z,8.50
2018-06-02T12:52:13.478Z,9.25
2018-06-02T12:54:46.171Z,8.75
2018-06-02T12:57:20.330Z,8.25
2018-06-02T12:59:53.864Z,8.00
2018-06-02T13:02:34.411Z,6.50
2018-06-02T13:05:09.187Z,7.00
2018-06-02T13:07:41.694Z,9.50
2018-06-02T13:10:17.985Z,5.50
2018-06-02T13:12:49.107Z,6.00
2018-06-02T13:15:23.600Z,6.00
2018-06-02T13:17:54.361Z,8.00
2018-06-02T13:22:56.933Z,9.25
2018-06-02T13:25:29.570Z,8.00
2018-06-02T13:28:06.344Z,7.00
2018-06-02T13:30:53.646Z,10.25
2018-06-02T13:33:25.133Z,8.00
2018-06-02T13:35:56.361Z,9.00
2018-06-02T13:38:28.703Z,9.25
2018-06-02T13:41:02.100Z,7.75
2018-06-02T13:43:34.863Z,9.50
2018-06-02T13:46:06.269Z,7.25
2018-06-02T13:48:37.538Z,8.75
2018-06-02T13:51:14.902Z,9.00
2018-06-02T13:53:46.394Z,8.00
2018-06-02T13:56:24.810Z,7.00
2018-06-02T13:59:26.061Z,9.25
2018-06-02T14:02:17.021Z,8.00
2018-06-02T14:04:58.995Z,8.00
2018-06-02T14:07:40.018Z,8.00
2018-06-02T14:10:34.572Z,7.00
2018-06-02T14:13:11.196Z,7.00
2018-06-02T14:15:52.639Z,8.50
2018-06-02T14:18:31.705Z,7.00
2018-06-02T14:21:20.191Z,7.00
2018-06-02T14:24:20.820Z,8.00
2018-06-02T14:26:59.044Z,6.25
2018-06-02T14:29:33.438Z,8.75
2018-06-02T14:32:13.308Z,7.00
2018-06-02T14:34:59.152Z,10.25
2018-06-02T14:37:35.165Z,9.75
2018-06-02T14:40:15.397Z,10.50
2018-06-02T14:42:48.831Z,12.00
2018-06-02T14:45:23.974Z,6.50
2018-06-02T14:47:58.444Z,7.00
2018-06-02T14:50:41.015Z,9.25
2018-06-02T14:53:20.064Z,8.00
2018-06-02T14:55:57.527Z,6.50
2018-06-02T14:58:32.642Z,7.00
2018-06-02T15:01:15.473Z,6.00
2018-06-02T15:03:56.166Z,5.00
2018-06-02T15:06:29.866Z,7.00
2018-06-02T15:09:06.951Z,6.00
2018-06-02T15:11:42.845Z,6.25
2018-06-02T15:17:42.236Z,7.50
2018-06-02T15:20:25.380Z,7.50
2018-06-02T15:23:01.300Z,6.50
2018-06-02T15:25:36.790Z,9.50
2018-06-02T15:28:13.474Z,8.75
2018-06-02T15:30:46.816Z,8.25
2018-06-02T15:33:24.884Z,13.00
2018-06-02T15:35:56.269Z,6.75
2018-06-02T15:38:32.769Z,8.25
2018-06-02T15:41:07.067Z,7.50
2018-06-02T15:43:37.694Z,8.50
2018-06-02T15:46:12.355Z,7.25
2018-06-02T15:48:55.496Z,6.75
2018-06-02T15:51:35.892Z,9.75
2018-06-02T15:54:08.269Z,8.75
2018-06-02T15:56:41.177Z,7.25
2018-06-02T15:59:16.538Z,9.25
2018-06-02T16:01:59.828Z,9.00
2018-06-02T16:04:51.329Z,8.00
2018-06-02T16:07:25.468Z,7.50
2018-06-02T16:09:57.782Z,10.50
2018-06-02T16:12:32.525Z,9.75
2018-06-02T16:15:06.289Z,9.50
2018-06-02T16:17:39.992Z,9.50
2018-06-02T16:20:11.279Z,9.50
2018-06-02T16:22:41.670Z,13.00
2018-06-02T16:25:17.120Z,12.25
2018-06-02T16:28:15.797Z,11.50
2018-06-02T16:30:52.217Z,9.75
2018-06-02T16:33:27.401Z,9.75
2018-06-02T16:36:03.667Z,13.00
2018-06-02T16:38:36.652Z,13.25
2018-06-02T16:41:11.744Z,18.25
2018-06-02T16:43:44.514Z,12.75
2018-06-02T16:46:17.486Z,11.50
2018-06-02T16:48:53.618Z,9.25
2018-06-02T16:51:28.657Z,11.00
2018-06-02T16:54:01.742Z,12.75
2018-06-02T16:56:48.654Z,10.25
2018-06-02T16:59:35.631Z,8.75
2018-06-02T17:02:09.500Z,9.75
2018-06-02T17:04:41.172Z,10.75
2018-06-02T17:07:12.787Z,13.25
2018-06-02T17:09:44.307Z,10.25
2018-06-02T17:12:19.817Z,9.00
2018-06-02T17:15:03.265Z,11.25
2018-06-02T17:17:39.228Z,11.00
2018-06-02T17:20:18.191Z,9.75
2018-06-02T17:22:58.563Z,11.75
2018-06-02T17:25:32.555Z,9.00
2018-06-02T17:28:07.126Z,10.25
2018-06-02T17:30:41.837Z,13.50
2018-06-02T17:33:18.921Z,16.00
2018-06-02T17:35:53.567Z,12.50
2018-06-02T17:38:24.495Z,10.75
2018-06-02T17:40:57.540Z,14.50
2018-06-02T17:43:29.465Z,10.00
2018-06-02T17:46:14.024Z,10.75
2018-06-02T17:48:47.568Z,11.50
2018-06-02T17:51:19.121Z,11.50
2018-06-02T17:53:50.269Z,10.00
2018-06-02T17:56:40.948Z,12.50
2018-06-02T17:59:16.375Z,10.75
2018-06-02T18:01:50.965Z,12.00
2018-06-02T18:04:21.606Z,11.75
2018-06-02T18:07:09.780Z,11.50
2018-06-02T18:09:41.158Z,11.50
2018-06-02T18:12:12.394Z,11.75
2018-06-02T18:15:29.773Z,9.75
2018-06-02T18:18:02.163Z,12.00
2018-06-02T18:20:49.964Z,10.75
2018-06-02T18:23:37.028Z,12.00
2018-06-02T18:26:13.320Z,13.25
2018-06-02T18:28:47.330Z,11.75
2018-06-02T18:31:22.793Z,10.50
2018-06-02T18:33:56.737Z,15.25
2018-06-02T18:36:33.081Z,13.50
2018-06-02T18:39:12.385Z,14.00
2018-06-02T18:42:05.650Z,17.00
2018-06-02T18:44:56.690Z,12.00
2018-06-02T18:47:29.750Z,12.00
2018-06-02T18:50:13.524Z,13.00
2018-06-02T18:52:45.319Z,12.75
2018-06-02T18:55:33.372Z,12.50
2018-06-02T18:58:06.817Z,14.00
2018-06-02T19:00:50.643Z,14.25
2018-06-02T19:03:38.490Z,13.50
2018-06-02T19:06:13.040Z,15.75
2018-06-02T19:08:48.644Z,13.50
2018-06-02T19:11:25.666Z,14.00
2018-06-02T19:13:59.244Z,21.50
2018-06-02T19:16:41.726Z,48.75
2018-06-02T19:19:17.016Z,12.50
2018-06-02T19:21:49.122Z,14.00
2018-06-02T19:24:27.648Z,16.00
2018-06-02T19:27:01.860Z,14.50
2018-06-02T19:29:34.186Z,14.50
2018-06-02T19:32:13.607Z,15.00
2018-06-02T19:34:46.555Z,17.00
2018-06-02T19:37:22.345Z,15.75
2018-06-02T19:39:57.580Z,15.00
2018-06-02T19:42:31.078Z,44.25
2018-06-02T19:45:47.356Z,31.00
2018-06-02T19:48:25.716Z,15.25
2018-06-02T19:51:02.155Z,14.25
2018-06-02T19:53:42.339Z,17.25
2018-06-02T19:56:16.104Z,17.25
2018-06-02T19:58:54.396Z,21.75
2018-06-02T20:01:29.064Z,15.50
2018-06-02T20:06:48.693Z,19.50
2018-06-02T20:09:23.662Z,16.50
2018-06-02T20:12:08.128Z,14.75
2018-06-02T20:14:40.960Z,15.00
2018-06-02T20:17:18.422Z,17.50
2018-06-02T20:20:05.794Z,15.75
2018-06-02T20:22:46.661Z,16.50
2018-06-02T20:25:28.221Z,15.25
2018-06-02T20:28:26.267Z,18.25
2018-06-02T20:31:52.201Z,20.25
2018-06-02T20:34:29.868Z,13.00
2018-06-02T20:37:10.829Z,17.00
2018-06-02T20:50:04.559Z,16.75
2018-06-02T20:52:41.003Z,15.25
2018-06-02T20:55:13.906Z,14.50
2018-06-02T20:57:58.131Z,16.75
2018-06-02T21:00:46.814Z,19.00
2018-06-02T21:03:30.729Z,17.25
2018-06-02T21:06:07.001Z,19.50
2018-06-02T21:08:39.915Z,19.50
2018-06-02T21:11:39.053Z,23.25
2018-06-02T21:14:15.163Z,20.50
2018-06-02T21:16:47.073Z,20.75
2018-06-02T21:19:20.658Z,21.00
2018-06-02T21:22:11.088Z,22.75
2018-06-02T21:24:53.118Z,26.75
2018-06-02T21:27:54.078Z,22.00
2018-06-02T21:30:42.933Z,18.00
2018-06-02T21:33:29.226Z,19.75
2018-06-02T21:36:11.675Z,19.00
2018-06-02T21:38:44.531Z,17.25
2018-06-02T21:41:17.268Z,22.25
2018-06-02T21:43:55.918Z,19.50
2018-06-02T21:46:34.417Z,22.00
2018-06-02T21:49:13.363Z,17.50
2018-06-02T21:52:05.545Z,22.75
2018-06-02T21:54:51.293Z,35.50
2018-06-02T21:57:22.243Z,22.00
2018-06-02T22:00:09.169Z,24.00
2018-06-02T22:02:46.779Z,22.00
2018-06-02T22:05:20.364Z,20.75
2018-06-02T22:07:55.750Z,29.75
2018-06-02T22:10:33.666Z,25.00
2018-06-02T22:13:13.582Z,27.75
2018-06-02T22:15:45.926Z,22.25
2018-06-02T22:18:21.194Z,23.25
2018-06-02T22:21:18.964Z,26.25
2018-06-02T22:23:57.721Z,27.25
2018-06-02T22:26:37.668Z,34.00
2018-06-02T22:29:21.366Z,27.75
2018-06-02T22:31:52.574Z,27.25
2018-06-02T22:34:36.248Z,28.50
2018-06-02T22:37:13.045Z,25.25
2018-06-02T22:39:51.883Z,29.25
2018-06-02T22:42:23.457Z,28.00
2018-06-02T22:44:56.530Z,29.00
2018-06-02T22:47:35.820Z,32.25
2018-06-02T22:50:11.584Z,36.50
2018-06-02T22:52:51.636Z,29.75
2018-06-02T22:55:23.992Z,32.25
2018-06-02T22:57:57.737Z,31.25
2018-06-02T23:00:35.685Z,30.75
2018-06-02T23:06:19.095Z,35.50
2018-06-02T23:08:58.106Z,32.50
2018-06-02T23:11:33.185Z,33.00
2018-06-02T23:14:17.323Z,39.50
2018-06-02T23:17:03.014Z,38.75
2018-06-02T23:19:56.195Z,35.75
2018-06-02T23:22:40.135Z,38.00
2018-06-02T23:25:11.553Z,36.25
2018-06-02T23:27:55.977Z,41.25
2018-06-02T23:30:30.388Z,39.25
2018-06-02T23:38:41.694Z,41.75
2018-06-02T23:41:12.786Z,42.75
2018-06-02T23:43:43.305Z,39.75
2018-06-02T23:46:15.107Z,41.25
2018-06-02T23:48:46.349Z,44.00
2018-06-02T23:51:19.207Z,45.75
2018-06-02T23:53:50.745Z,38.50
2018-06-02T23:56:21.471Z,43.00
2018-06-02T23:58:51.943Z,40.50
